CDT,Max TemperatureF,Mean TemperatureF,Min TemperatureF,Max Dew PointF,MeanDew PointF,Min DewpointF,Max Humidity, Mean Humidity, Min Humidity, Max Sea Level PressureIn, Mean Sea Level PressureIn, Min Sea Level PressureIn, Max VisibilityMiles, Mean VisibilityMiles, Min VisibilityMiles, Max Wind SpeedMPH, Mean Wind SpeedMPH, Max Gust SpeedMPH,PrecipitationIn, CloudCover, Events, WindDirDegrees
2013-7-1,88,76,64,62,59,56,81,58,34,29.97,29.93,29.89,10,10,10,14,6,21,0.00,2,,350
2013-7-2,90,77,63,60,55,50,84,56,28,30.05,30.01,29.97,10,10,10,15,3,25,0.00,1,,13
2013-7-3,89,75,61,63,58,54,90,61,31,30.08,30.02,29.97,10,10,8,8,3,13,0.00,2,,79
2013-7-4,90,76,61,61,57,53,93,62,31,30.04,30.00,29.94,10,9,5,10,4,14,0.00,0,,97
2013-7-5,93,78,62,63,58,55,93,62,30,30.03,29.98,29.92,10,9,4,9,4,15,0.00,1,,114
2013-7-6,93,78,63,69,63,58,93,63,32,30.01,29.96,29.91,10,9,5,10,4,17,0.00,0,,128
2013-7-7,95,82,69,72,68,65,90,65,39,30.05,30.00,29.96,10,10,7,14,6,18,0.00,1,,135
2013-7-8,95,84,72,73,70,68,100,73,46,30.13,30.08,30.02,10,10,4,14,7,18,0.00,3,,196
2013-7-9,98,87,75,72,67,63,87,61,34,30.13,30.07,29.99,10,10,10,16,8,23,0.00,2,,208
2013-7-10,100,88,75,72,70,67,79,59,39,30.06,29.99,29.90,10,10,9,22,9,32,0.01,2,Rain-Thunderstorm,214
2013-7-11,99,86,72,72,70,67,87,63,39,30.00,29.94,29.88,10,10,10,18,4,24,0.01,2,Rain,254
2013-7-12,95,84,72,70,68,63,87,66,44,30.01,29.95,29.91,10,10,8,12,5,17,0.00,0,,57
2013-7-13,92,77,61,62,59,55,90,61,32,30.02,29.97,29.93,10,10,8,12,4,17,0.00,0,,53
2013-7-14,86,77,68,66,63,58,79,60,40,30.01,29.96,29.93,10,10,9,9,2,13,0.00,0,,85
2013-7-15,90,80,70,72,69,65,100,75,50,30.15,30.07,29.97,10,8,2,17,4,23,0.34,4,Rain-Thunderstorm,100
2013-7-16,92,81,69,73,70,68,100,74,47,30.21,30.15,30.10,10,8,4,17,4,26,T,1,Rain-Thunderstorm,85
2013-7-17,95,84,72,72,70,67,93,67,41,30.26,30.20,30.14,10,10,7,13,4,17,0.00,1,,84
2013-7-18,97,85,72,72,69,63,93,64,34,30.17,30.10,29.99,10,10,8,18,4,30,T,1,Rain,86
2013-7-19,88,80,71,73,71,69,94,76,57,30.09,30.02,29.95,10,8,0,12,3,15,0.24,3,Fog-Rain,208
2013-7-20,94,84,74,73,69,65,94,67,39,29.98,29.93,29.84,10,9,4,16,4,23,0.00,1,Thunderstorm,207
2013-7-21,95,84,72,73,70,67,93,68,42,29.96,29.91,29.86,10,10,8,15,8,18,T,1,,201
2013-7-22,97,87,76,73,71,69,94,68,42,29.99,29.93,29.88,10,10,10,21,10,25,0.00,1,,216
2013-7-23,98,86,73,75,72,70,93,69,45,29.99,29.91,29.82,10,9,1,35,9,53,0.33,3,Rain-Thunderstorm,223
2013-7-24,87,79,70,71,69,66,93,74,55,29.98,29.94,29.84,10,10,10,16,5,22,0.02,3,Rain,18
2013-7-25,91,80,69,72,70,68,97,74,50,30.08,30.02,29.96,10,10,7,9,3,13,0.00,2,,74
2013-7-26,75,71,67,72,69,66,100,90,79,30.09,30.00,29.87,10,5,1,24,6,30,1.86,7,Rain-Thunderstorm,69
2013-7-27,86,77,67,68,66,64,93,72,51,30.00,29.95,29.92,10,7,1,14,6,20,T,6,Rain,36
2013-7-28,89,78,66,69,67,65,93,70,46,30.02,29.98,29.95,10,9,4,13,3,18,0.00,1,,114
2013-7-29,93,82,71,73,71,69,93,71,49,30.07,30.03,29.98,10,8,5,15,7,21,0.00,3,,145
2013-7-30,93,85,76,73,70,67,79,64,49,30.11,30.03,29.98,10,10,9,15,7,20,0.00,0,,183
2013-7-31,94,85,75,77,72,67,87,68,49,30.09,30.00,29.93,10,9,3,13,6,16,0.09,4,Rain,175